Time;durP1;ratioP1;P1;durP2;ratioP2;P2;SDS_P1;SDS_P2;PMS_P1;PMS_P2;Temp;Humidity;BMP_temperature;BMP_pressure;BME280_temperature;BME280_humidity;BME280_pressure;Samples;Min_cycle;Max_cycle;Signal;HPM_P1;HPM_P2
2022/07/18 00:00:56;;;;;;;1.80;1.20;;;22.40;40.00;;;;;;7380232;19;20451;-50
2022/07/18 00:03:25;;;;;;;1.47;0.97;;;22.50;40.90;;;;;;7382624;19;20364;-50
2022/07/18 00:05:55;;;;;;;2.90;1.20;;;22.20;40.60;;;;;;7387678;19;20393;-50
2022/07/18 00:08:27;;;;;;;2.10;1.30;;;21.90;40.60;;;;;;7383985;19;20373;-50
2022/07/18 00:10:57;;;;;;;2.40;1.20;;;21.70;41.00;;;;;;7384464;19;20850;-50
2022/07/18 00:13:26;;;;;;;1.67;1.20;;;21.70;40.60;;;;;;7386530;19;20392;-50
2022/07/18 00:15:55;;;;;;;1.40;1.00;;;21.70;40.70;;;;;;7379839;19;21020;-49
2022/07/18 00:18:25;;;;;;;1.93;1.40;;;21.50;40.70;;;;;;7382841;19;20417;-46
2022/07/18 00:20:54;;;;;;;1.50;1.10;;;21.50;41.10;;;;;;7380401;19;20452;-45
2022/07/18 00:23:26;;;;;;;3.10;1.13;;;21.40;40.80;;;;;;7384597;19;20981;-46
2022/07/18 00:26:01;;;;;;;1.00;0.90;;;21.20;40.70;;;;;;7384655;19;20399;-45
2022/07/18 00:28:30;;;;;;;1.87;1.33;;;21.20;41.00;;;;;;7373389;19;20743;-46
2022/07/18 00:31:02;;;;;;;1.40;1.17;;;21.10;41.00;;;;;;7379161;19;20375;-46
2022/07/18 00:33:31;;;;;;;1.67;1.10;;;21.40;40.70;;;;;;7383249;19;20383;-46
2022/07/18 00:36:03;;;;;;;1.53;1.17;;;21.40;40.20;;;;;;7386001;19;20391;-46
2022/07/18 00:38:35;;;;;;;2.43;1.17;;;21.40;40.50;;;;;;7380921;19;20372;-46
2022/07/18 00:41:05;;;;;;;2.90;0.93;;;21.20;40.70;;;;;;7386494;19;20492;-46
2022/07/18 00:43:34;;;;;;;1.20;1.00;;;21.20;41.10;;;;;;7383090;19;20496;-46
2022/07/18 00:46:04;;;;;;;1.73;1.03;;;21.00;40.80;;;;;;7380038;19;20372;-46
2022/07/18 00:48:33;;;;;;;1.27;0.80;;;21.10;40.90;;;;;;7381818;19;20379;-46
2022/07/18 00:51:03;;;;;;;1.33;1.00;;;21.00;41.00;;;;;;7377238;19;20384;-46
2022/07/18 00:53:35;;;;;;;1.67;0.87;;;21.00;40.30;;;;;;7382316;19;20367;-46
2022/07/18 00:56:06;;;;;;;1.37;1.10;;;20.90;40.40;;;;;;7379428;19;20372;-46
2022/07/18 00:58:35;;;;;;;2.40;1.00;;;20.80;40.70;;;;;;7384312;19;20381;-46
2022/07/18 01:03:49;;;;;;;1.53;1.17;;;20.70;40.80;;;;;;7378388;19;20383;-46
2022/07/18 01:06:19;;;;;;;1.70;0.80;;;20.80;40.90;;;;;;7377188;19;20435;-46
2022/07/18 01:08:51;;;;;;;2.60;1.27;;;20.70;40.40;;;;;;7381677;19;20372;-45
2022/07/18 01:11:21;;;;;;;1.77;1.30;;;20.50;40.60;;;;;;7383558;19;20372;-45
2022/07/18 01:13:51;;;;;;;2.60;1.13;;;20.40;40.70;;;;;;7379000;19;20948;-45
2022/07/18 01:16:21;;;;;;;1.67;0.80;;;20.20;41.10;;;;;;7381507;19;20909;-46
2022/07/18 01:18:52;;;;;;;1.57;0.80;;;20.20;41.00;;;;;;7374644;19;20373;-46
2022/07/18 01:21:24;;;;;;;2.33;1.40;;;20.20;40.50;;;;;;7385758;19;20383;-50
2022/07/18 01:23:53;;;;;;;1.00;0.90;;;20.30;40.50;;;;;;7382637;19;20372;-50
2022/07/18 01:26:23;;;;;;;2.27;1.10;;;20.40;40.40;;;;;;7379284;19;20464;-50
2022/07/18 01:28:55;;;;;;;1.50;1.03;;;20.50;40.10;;;;;;7382188;19;21109;-51
2022/07/18 01:31:24;;;;;;;1.00;0.80;;;20.40;40.20;;;;;;7383591;19;20369;-51
2022/07/18 01:33:57;;;;;;;2.00;1.07;;;20.40;40.40;;;;;;7380495;19;20404;-52
2022/07/18 01:36:29;;;;;;;1.87;1.30;;;20.40;40.30;;;;;;7385118;19;20426;-50
2022/07/18 01:38:58;;;;;;;3.90;1.03;;;20.60;40.60;;;;;;7378923;19;20380;-50
2022/07/18 01:41:35;;;;;;;2.13;1.40;;;20.80;40.50;;;;;;7387070;19;20391;-50
2022/07/18 01:44:05;;;;;;;1.43;0.83;;;21.00;40.90;;;;;;7378779;19;21116;-51
2022/07/18 01:46:37;;;;;;;1.23;1.07;;;21.00;41.00;;;;;;7379785;19;21340;-51
2022/07/18 01:49:06;;;;;;;1.40;1.23;;;20.90;41.10;;;;;;7385216;19;20932;-51
2022/07/18 01:51:38;;;;;;;2.30;1.17;;;20.80;41.50;;;;;;7384774;19;20391;-50
2022/07/18 01:54:08;;;;;;;1.70;1.10;;;20.90;41.40;;;;;;7378843;19;20400;-50
2022/07/18 01:56:37;;;;;;;1.83;1.00;;;20.70;41.40;;;;;;7377763;19;20380;-52
2022/07/18 01:59:06;;;;;;;1.10;0.93;;;20.70;41.50;;;;;;7384224;19;20387;-51
2022/07/18 02:01:36;;;;;;;2.23;1.27;;;20.50;42.00;;;;;;7378021;19;20372;-50
2022/07/18 02:04:06;;;;;;;2.63;1.10;;;20.40;41.80;;;;;;7376057;19;20445;-50
2022/07/18 02:06:38;;;;;;;1.40;0.90;;;20.40;42.10;;;;;;7377916;19;20364;-50
2022/07/18 02:09:08;;;;;;;3.70;1.47;;;20.50;41.80;;;;;;7377021;19;20420;-51
2022/07/18 02:11:40;;;;;;;2.03;0.90;;;20.50;41.50;;;;;;7382635;19;20990;-50
2022/07/18 02:14:09;;;;;;;3.13;1.47;;;20.50;41.80;;;;;;7377783;19;20418;-50
2022/07/18 02:16:39;;;;;;;1.87;1.20;;;20.40;41.80;;;;;;7375403;19;20376;-50
2022/07/18 02:19:11;;;;;;;1.83;1.17;;;20.20;42.10;;;;;;7377598;19;21213;-50
2022/07/18 02:21:43;;;;;;;2.70;1.30;;;20.20;42.10;;;;;;7379113;19;20917;-50
2022/07/18 02:24:12;;;;;;;1.80;1.10;;;20.00;42.20;;;;;;7383335;19;20476;-51
2022/07/18 02:26:42;;;;;;;1.77;0.90;;;20.00;42.80;;;;;;7379364;19;20846;-50
2022/07/18 02:29:11;;;;;;;3.63;1.40;;;20.10;42.50;;;;;;7375546;19;20384;-51
2022/07/18 02:31:43;;;;;;;1.97;1.07;;;20.00;42.60;;;;;;7376644;19;20363;-50
2022/07/18 02:34:15;;;;;;;2.00;1.23;;;20.20;42.60;;;;;;7375164;19;20480;-50
2022/07/18 02:36:50;;;;;;;1.17;1.00;;;20.20;42.80;;;;;;7376838;19;20421;-50
2022/07/18 02:39:20;;;;;;;1.20;1.10;;;20.10;42.70;;;;;;7374060;19;20439;-52
2022/07/18 02:41:50;;;;;;;1.13;0.80;;;20.10;42.80;;;;;;7378035;19;20531;-50
2022/07/18 02:44:20;;;;;;;1.20;1.10;;;20.10;43.10;;;;;;7377704;19;20365;-50
2022/07/18 02:46:49;;;;;;;1.50;1.30;;;20.30;43.00;;;;;;7376715;19;20387;-50
2022/07/18 02:49:29;;;;;;;2.60;1.40;;;20.20;42.80;;;;;;7377856;19;20376;-50
2022/07/18 02:52:03;;;;;;;2.10;1.53;;;19.90;43.00;;;;;;7371064;19;20800;-46
2022/07/18 02:54:34;;;;;;;2.03;1.20;;;19.90;43.40;;;;;;7381632;19;20376;-46
2022/07/18 02:57:03;;;;;;;1.30;1.10;;;19.70;43.70;;;;;;7383321;19;20917;-46
2022/07/18 02:59:36;;;;;;;1.30;1.20;;;19.70;44.10;;;;;;7384915;19;20859;-45
2022/07/18 03:02:06;;;;;;;2.10;1.23;;;19.70;44.60;;;;;;7381692;19;20380;-45
2022/07/18 03:04:37;;;;;;;2.67;1.57;;;19.80;44.30;;;;;;7381259;19;20368;-46
2022/07/18 03:07:09;;;;;;;2.97;1.40;;;19.60;44.40;;;;;;7387028;19;20392;-45
2022/07/18 03:09:39;;;;;;;2.47;1.47;;;19.60;44.70;;;;;;7386524;19;20957;-46
2022/07/18 03:12:08;;;;;;;3.53;1.73;;;19.50;44.80;;;;;;7384389;19;23896;-46
2022/07/18 03:14:38;;;;;;;2.93;1.30;;;19.60;45.20;;;;;;7384222;19;20444;-46
2022/07/18 03:17:09;;;;;;;1.90;1.40;;;19.50;45.20;;;;;;7383517;19;20395;-45
2022/07/18 03:19:39;;;;;;;2.30;1.67;;;19.40;45.30;;;;;;7378609;19;21239;-50
2022/07/18 03:22:11;;;;;;;1.87;1.53;;;19.30;45.60;;;;;;7381327;19;21326;-51
2022/07/18 03:24:41;;;;;;;1.90;1.70;;;19.40;45.80;;;;;;7387470;19;20700;-50
2022/07/18 03:27:10;;;;;;;5.73;1.63;;;19.40;45.90;;;;;;7384707;19;20424;-50
2022/07/18 03:29:42;;;;;;;3.50;1.70;;;19.30;46.00;;;;;;7382042;19;20380;-50
2022/07/18 03:32:12;;;;;;;2.00;1.63;;;19.40;46.30;;;;;;7382288;19;20439;-50
2022/07/18 03:34:41;;;;;;;4.40;1.40;;;19.40;46.10;;;;;;7386251;19;20676;-50
2022/07/18 03:37:13;;;;;;;3.40;1.30;;;19.50;46.40;;;;;;7385636;19;20956;-50
2022/07/18 03:39:43;;;;;;;2.57;1.70;;;19.70;46.30;;;;;;7383896;19;20428;-50
2022/07/18 03:42:12;;;;;;;1.53;1.30;;;19.70;46.10;;;;;;7381117;19;20420;-50
2022/07/18 03:44:42;;;;;;;2.40;1.17;;;19.80;46.20;;;;;;7384665;19;20996;-50
2022/07/18 03:47:12;;;;;;;2.73;1.53;;;19.70;46.10;;;;;;7382194;19;20467;-51
2022/07/18 03:49:44;;;;;;;2.30;1.33;;;19.40;46.50;;;;;;7383821;19;20463;-50
2022/07/18 03:52:16;;;;;;;2.03;1.47;;;19.20;47.80;;;;;;7390196;19;20889;-51
2022/07/18 03:54:46;;;;;;;1.97;1.23;;;19.30;47.70;;;;;;7379811;19;20458;-50
2022/07/18 03:57:15;;;;;;;4.33;1.73;;;19.40;47.40;;;;;;7378236;19;20371;-50
2022/07/18 03:59:45;;;;;;;1.83;1.63;;;19.50;48.00;;;;;;7379326;19;20424;-52
2022/07/18 04:02:17;;;;;;;3.20;1.70;;;19.30;47.40;;;;;;7369697;19;20372;-50
2022/07/18 04:04:46;;;;;;;3.60;1.70;;;19.20;48.20;;;;;;7380354;19;20379;-50
2022/07/18 04:07:21;;;;;;;3.70;1.70;;;19.30;48.40;;;;;;7381244;19;20821;-51
2022/07/18 04:09:50;;;;;;;1.60;1.50;;;19.30;48.50;;;;;;7381174;19;20402;-50
2022/07/18 04:12:20;;;;;;;2.07;1.50;;;19.40;48.60;;;;;;7384905;19;20396;-50
2022/07/18 04:14:49;;;;;;;2.77;1.50;;;19.30;48.50;;;;;;7378540;19;20980;-52
2022/07/18 04:17:18;;;;;;;2.13;1.93;;;19.10;48.80;;;;;;7382035;19;20372;-50
2022/07/18 04:19:51;;;;;;;3.10;1.60;;;19.20;49.20;;;;;;7384525;19;20472;-50
2022/07/18 04:22:23;;;;;;;2.73;1.47;;;19.30;49.40;;;;;;7381553;19;20421;-50
2022/07/18 04:24:52;;;;;;;1.87;1.67;;;19.50;49.10;;;;;;7381971;19;20384;-50
2022/07/18 04:27:24;;;;;;;3.30;1.50;;;19.30;49.20;;;;;;7385048;19;20380;-50
2022/07/18 04:29:53;;;;;;;2.33;2.00;;;19.30;49.30;;;;;;7384656;19;20372;-50
2022/07/18 04:32:23;;;;;;;2.03;1.70;;;19.20;49.60;;;;;;7367090;19;20480;-50
2022/07/18 04:34:52;;;;;;;3.53;1.47;;;19.20;50.10;;;;;;7369852;19;20360;-51
2022/07/18 04:37:26;;;;;;;3.43;1.70;;;19.20;50.40;;;;;;7383623;19;20392;-50
2022/07/18 04:39:56;;;;;;;2.03;1.67;;;19.30;50.80;;;;;;7379907;19;20383;-52
2022/07/18 04:42:25;;;;;;;3.17;1.73;;;19.20;51.20;;;;;;7372620;19;20420;-50
2022/07/18 04:44:55;;;;;;;2.43;2.23;;;19.00;51.80;;;;;;7379753;19;20376;-52
2022/07/18 04:47:24;;;;;;;3.10;2.10;;;18.90;52.50;;;;;;7384017;19;20404;-52
2022/07/18 04:49:54;;;;;;;1.80;1.70;;;18.90;53.10;;;;;;7383007;19;20874;-50
2022/07/18 04:52:27;;;;;;;3.00;2.07;;;19.00;53.10;;;;;;7382775;19;20368;-50
2022/07/18 04:54:56;;;;;;;2.10;1.90;;;19.20;53.00;;;;;;7384586;19;20372;-50
2022/07/18 04:57:26;;;;;;;1.80;1.67;;;19.20;53.20;;;;;;7379427;19;20383;-50
2022/07/18 04:59:55;;;;;;;3.83;2.27;;;19.30;53.20;;;;;;7371367;19;20445;-51
2022/07/18 05:02:24;;;;;;;2.20;1.93;;;19.30;53.40;;;;;;7383784;19;20905;-51
2022/07/18 05:04:54;;;;;;;4.07;1.77;;;19.40;53.50;;;;;;7375160;19;20372;-50
2022/07/18 05:07:26;;;;;;;3.97;2.10;;;19.50;53.40;;;;;;7385364;19;20388;-50
2022/07/18 05:09:57;;;;;;;4.07;2.40;;;19.60;52.40;;;;;;7373692;19;20933;-50
2022/07/18 05:12:31;;;;;;;3.00;2.17;;;19.60;52.20;;;;;;7379457;19;20366;-50
2022/07/18 05:15:00;;;;;;;6.67;2.47;;;19.60;52.70;;;;;;7376579;19;20445;-50
2022/07/18 05:17:30;;;;;;;4.03;2.10;;;19.80;52.40;;;;;;7373425;19;20384;-50
2022/07/18 05:19:59;;;;;;;2.53;1.93;;;19.90;51.30;;;;;;7375273;19;20933;-50
2022/07/18 05:22:31;;;;;;;5.43;2.87;;;20.10;50.60;;;;;;7377301;19;21338;-50
2022/07/18 05:25:01;;;;;;;2.03;1.83;;;20.30;50.30;;;;;;7375571;19;20445;-50
2022/07/18 05:27:30;;;;;;;4.13;2.50;;;20.50;49.90;;;;;;7375603;19;20387;-50
2022/07/18 05:30:01;;;;;;;2.67;1.97;;;20.50;49.70;;;;;;7386975;19;20409;-50
2022/07/18 05:32:31;;;;;;;5.33;2.30;;;20.50;49.50;;;;;;7378889;19;20941;-52
2022/07/18 05:35:00;;;;;;;3.43;2.27;;;20.70;49.50;;;;;;7379675;19;20376;-50
2022/07/18 05:37:35;;;;;;;2.10;1.90;;;20.70;49.80;;;;;;7378713;19;20380;-50
2022/07/18 05:40:04;;;;;;;4.40;1.83;;;20.80;49.70;;;;;;7382630;19;20380;-50
2022/07/18 05:42:34;;;;;;;3.20;1.80;;;21.00;49.70;;;;;;7380435;19;20379;-51
2022/07/18 05:45:05;;;;;;;4.20;2.03;;;21.10;49.20;;;;;;7377617;19;20376;-51
2022/07/18 05:47:34;;;;;;;2.20;2.00;;;21.30;49.20;;;;;;7378206;19;20386;-50
2022/07/18 05:50:07;;;;;;;2.93;2.57;;;21.30;48.90;;;;;;7381092;19;20380;-51
2022/07/18 05:52:39;;;;;;;2.47;2.27;;;21.40;48.80;;;;;;7377532;19;20376;-51
2022/07/18 05:55:10;;;;;;;3.70;2.60;;;21.50;48.60;;;;;;7368876;19;24935;-50
2022/07/18 05:57:39;;;;;;;3.77;1.90;;;21.60;48.70;;;;;;7382607;19;20368;-50
2022/07/18 06:00:12;;;;;;;4.20;2.40;;;21.70;48.70;;;;;;7382606;19;20420;-46
2022/07/18 06:02:41;;;;;;;5.40;2.57;;;21.70;49.10;;;;;;7384331;19;20379;-46
2022/07/18 06:05:12;;;;;;;3.20;2.43;;;21.80;49.30;;;;;;7386217;19;20384;-46
2022/07/18 06:07:44;;;;;;;3.40;2.50;;;21.80;49.10;;;;;;7385867;19;20372;-46
2022/07/18 06:10:14;;;;;;;4.50;2.70;;;21.90;49.30;;;;;;7381216;19;20739;-46
2022/07/18 06:12:43;;;;;;;4.20;2.17;;;21.90;49.50;;;;;;7385493;19;20384;-45
2022/07/18 06:15:15;;;;;;;4.27;2.40;;;22.00;49.30;;;;;;7387014;19;20380;-46
2022/07/18 06:17:44;;;;;;;5.67;2.47;;;22.10;49.50;;;;;;7385791;19;20379;-47
2022/07/18 06:20:16;;;;;;;4.50;2.63;;;22.20;49.20;;;;;;7381806;19;20364;-46
2022/07/18 06:22:48;;;;;;;6.80;2.80;;;22.30;49.00;;;;;;7381386;19;20364;-46
2022/07/18 06:25:18;;;;;;;3.97;2.27;;;22.40;48.50;;;;;;7382955;19;20432;-46
2022/07/18 06:27:47;;;;;;;4.80;2.57;;;22.40;48.50;;;;;;7386452;19;20409;-46
2022/07/18 06:30:17;;;;;;;10.70;2.73;;;22.50;49.20;;;;;;7384979;19;20946;-51
2022/07/18 06:32:48;;;;;;;7.60;3.27;;;22.60;49.10;;;;;;7386041;19;21132;-50
2022/07/18 06:35:18;;;;;;;4.87;2.90;;;22.70;49.00;;;;;;7385082;19;20380;-50
2022/07/18 06:37:50;;;;;;;7.00;2.63;;;22.90;48.60;;;;;;7384181;19;20398;-51
2022/07/18 06:40:19;;;;;;;3.63;2.70;;;23.20;48.20;;;;;;7385050;19;20756;-50
2022/07/18 06:42:49;;;;;;;6.10;3.77;;;23.30;48.40;;;;;;7384685;19;20373;-51
2022/07/18 06:45:18;;;;;;;4.60;3.73;;;23.30;49.00;;;;;;7383960;19;20914;-50
2022/07/18 06:47:48;;;;;;;4.40;3.23;;;23.40;49.20;;;;;;7386443;19;20364;-50
2022/07/18 06:50:18;;;;;;;19.93;6.17;;;23.50;49.40;;;;;;7384765;19;20387;-50
2022/07/18 06:52:50;;;;;;;8.20;3.67;;;23.70;49.40;;;;;;7384586;19;20380;-50
2022/07/18 06:55:20;;;;;;;9.37;4.10;;;23.80;49.50;;;;;;7382092;19;20402;-50
2022/07/18 06:57:50;;;;;;;6.40;3.33;;;24.00;49.40;;;;;;7384638;19;20376;-51
2022/07/18 07:00:19;;;;;;;11.60;4.40;;;24.00;49.20;;;;;;7384085;19;20424;-51
2022/07/18 07:02:50;;;;;;;5.13;3.60;;;24.10;49.10;;;;;;7384779;19;20380;-50
2022/07/18 07:05:21;;;;;;;8.20;4.93;;;24.30;48.90;;;;;;7381941;19;20379;-50
2022/07/18 07:07:53;;;;;;;12.03;7.90;;;24.40;49.00;;;;;;7385216;19;20397;-50
2022/07/18 07:10:23;;;;;;;17.70;10.83;;;24.50;49.30;;;;;;7381480;19;20822;-50
2022/07/18 07:12:53;;;;;;;32.53;13.20;;;24.60;51.60;;;;;;7385490;19;20376;-50
2022/07/18 07:15:25;;;;;;;16.03;6.90;;;24.80;51.80;;;;;;7383424;19;20379;-47
2022/07/18 07:17:56;;;;;;;22.10;10.03;;;24.90;50.50;;;;;;7381296;19;20376;-50
2022/07/18 07:20:25;;;;;;;33.40;12.77;;;25.10;50.10;;;;;;7379028;19;20368;-50
2022/07/18 07:23:01;;;;;;;21.57;12.33;;;25.20;50.10;;;;;;7384100;19;20372;-50
2022/07/18 07:25:30;;;;;;;22.40;10.10;;;25.40;50.10;;;;;;7377301;19;20436;-51
2022/07/18 07:28:00;;;;;;;23.87;10.20;;;25.50;50.00;;;;;;7383520;19;20380;-50
2022/07/18 07:30:30;;;;;;;22.60;10.30;;;25.60;49.70;;;;;;7384760;19;20894;-46
2022/07/18 07:32:59;;;;;;;24.60;10.80;;;25.70;49.20;;;;;;7382153;19;20947;-46
2022/07/18 07:35:31;;;;;;;9.67;5.70;;;25.80;48.90;;;;;;7383650;19;20385;-46
2022/07/18 07:38:03;;;;;;;5.03;3.87;;;25.90;48.50;;;;;;7382405;19;20372;-46
2022/07/18 07:40:33;;;;;;;5.17;4.00;;;26.00;47.60;;;;;;7382389;19;20788;-47
2022/07/18 07:43:10;;;;;;;9.53;3.97;;;26.20;47.10;;;;;;7388888;19;20384;-46
2022/07/18 07:45:41;;;;;;;6.10;3.90;;;26.40;46.50;;;;;;7386729;19;20432;-47
2022/07/18 07:48:11;;;;;;;7.73;3.60;;;26.40;46.30;;;;;;7387557;19;20752;-46
2022/07/18 07:50:43;;;;;;;9.90;3.77;;;26.60;46.20;;;;;;7393032;19;20428;-46
2022/07/18 07:53:17;;;;;;;12.40;4.47;;;26.70;45.50;;;;;;7389704;19;20403;-46
2022/07/18 07:55:46;;;;;;;23.23;7.50;;;26.70;45.50;;;;;;7391049;19;20914;-47
2022/07/18 07:58:18;;;;;;;5.90;4.20;;;26.90;45.30;;;;;;7389860;19;20382;-47
2022/07/18 08:00:48;;;;;;;9.03;3.50;;;27.10;45.30;;;;;;7385674;19;20439;-47
2022/07/18 08:03:17;;;;;;;4.17;2.90;;;27.20;44.60;;;;;;7386567;19;20392;-47
2022/07/18 08:05:49;;;;;;;5.90;3.10;;;27.40;43.90;;;;;;7383784;19;20391;-46
2022/07/18 08:08:22;;;;;;;5.07;3.63;;;27.50;43.60;;;;;;7384318;19;20389;-47
2022/07/18 08:10:53;;;;;;;4.93;2.87;;;27.60;42.60;;;;;;7386700;19;20836;-47
2022/07/18 08:13:22;;;;;;;4.30;3.10;;;27.70;43.30;;;;;;7391129;19;20549;-47
2022/07/18 08:15:52;;;;;;;6.13;3.50;;;27.90;43.00;;;;;;7389790;19;20379;-47
2022/07/18 08:18:21;;;;;;;7.97;3.33;;;28.10;42.40;;;;;;7385411;19;20382;-47
2022/07/18 08:20:50;;;;;;;9.73;4.03;;;28.40;42.40;;;;;;7387106;19;20379;-47
2022/07/18 08:23:23;;;;;;;5.70;2.90;;;28.50;42.00;;;;;;7382859;19;20451;-47
2022/07/18 08:25:52;;;;;;;5.13;2.90;;;28.70;41.30;;;;;;7385126;19;20388;-46
2022/07/18 08:28:25;;;;;;;13.83;3.70;;;28.80;40.30;;;;;;7385749;19;20722;-47
2022/07/18 08:30:54;;;;;;;21.00;7.63;;;28.80;40.70;;;;;;7390271;19;20388;-47
2022/07/18 08:33:24;;;;;;;22.23;10.30;;;28.90;40.90;;;;;;7383690;19;20424;-47
2022/07/18 08:35:53;;;;;;;19.53;7.60;;;29.10;41.60;;;;;;7385859;19;20380;-47
2022/07/18 08:38:27;;;;;;;13.90;6.37;;;29.30;40.40;;;;;;7384018;19;20385;-47
2022/07/18 08:40:58;;;;;;;12.83;7.00;;;29.30;39.90;;;;;;7385184;19;20667;-47
2022/07/18 08:43:28;;;;;;;13.47;6.50;;;29.40;40.20;;;;;;7388318;19;20387;-47
2022/07/18 08:46:03;;;;;;;4.83;2.80;;;29.60;39.30;;;;;;7387399;19;20491;-47
2022/07/18 08:48:33;;;;;;;4.40;2.80;;;29.70;38.50;;;;;;7387828;19;20382;-47
2022/07/18 08:51:04;;;;;;;9.70;4.43;;;29.80;37.80;;;;;;7380307;19;20396;-47
2022/07/18 08:53:38;;;;;;;9.70;5.47;;;29.80;38.50;;;;;;7387429;19;20740;-45
2022/07/18 08:56:08;;;;;;;8.80;4.30;;;30.10;38.20;;;;;;7383557;19;20467;-45
2022/07/18 08:58:38;;;;;;;5.57;2.80;;;30.30;37.80;;;;;;7385215;19;20413;-47
2022/07/18 09:01:12;;;;;;;5.50;3.13;;;30.40;36.70;;;;;;7383143;19;21005;-44
2022/07/18 09:03:44;;;;;;;3.90;2.47;;;30.50;37.30;;;;;;7380946;19;20376;-45
2022/07/18 09:06:16;;;;;;;5.10;3.10;;;30.60;37.00;;;;;;7384796;19;20417;-45
2022/07/18 09:09:04;;;;;;;3.93;2.77;;;30.80;36.30;;;;;;7388257;19;20921;-45
2022/07/18 09:11:36;;;;;;;12.10;6.97;;;31.10;36.40;;;;;;7387408;19;20380;-45
2022/07/18 09:14:05;;;;;;;4.40;2.70;;;31.20;35.70;;;;;;7381435;19;20908;-45
2022/07/18 09:16:35;;;;;;;4.90;2.90;;;31.40;34.90;;;;;;7385254;19;20398;-45
2022/07/18 09:19:09;;;;;;;2.73;2.53;;;31.50;34.40;;;;;;7386476;19;20369;-45
2022/07/18 09:21:40;;;;;;;3.83;2.93;;;31.70;33.80;;;;;;7387641;19;20976;-45
2022/07/18 09:24:12;;;;;;;6.80;3.33;;;31.90;33.00;;;;;;7385078;19;20372;-45
2022/07/18 09:26:43;;;;;;;3.63;2.30;;;32.00;31.90;;;;;;7381230;19;20853;-45
2022/07/18 09:29:17;;;;;;;3.70;2.57;;;32.20;31.50;;;;;;7387927;19;20376;-45
2022/07/18 09:31:52;;;;;;;5.57;2.60;;;32.50;31.00;;;;;;7385720;19;20419;-45
2022/07/18 09:34:35;;;;;;;4.80;2.17;;;32.60;30.70;;;;;;7383391;19;20371;-45
2022/07/18 09:37:12;;;;;;;3.20;2.53;;;32.50;30.10;;;;;;7385665;19;20372;-46
2022/07/18 09:39:44;;;;;;;3.00;2.17;;;32.70;30.40;;;;;;7386291;19;20375;-45
2022/07/18 09:42:18;;;;;;;3.17;2.63;;;33.00;30.00;;;;;;7382631;19;20736;-45
2022/07/18 09:45:01;;;;;;;2.80;2.43;;;33.30;29.80;;;;;;7385013;19;21050;-45
2022/07/18 09:47:30;;;;;;;4.43;2.37;;;33.50;29.60;;;;;;7383840;19;20384;-45
2022/07/18 09:50:05;;;;;;;6.17;3.37;;;33.20;29.00;;;;;;7384087;19;20424;-45
2022/07/18 09:52:35;;;;;;;3.20;2.00;;;33.50;29.40;;;;;;7387302;19;20440;-46
2022/07/18 09:55:13;;;;;;;3.80;1.97;;;33.80;28.70;;;;;;7385641;19;20478;-46
2022/07/18 09:57:45;;;;;;;4.60;2.00;;;34.10;28.30;;;;;;7381238;19;20383;-48
2022/07/18 10:00:15;;;;;;;2.93;2.17;;;34.30;28.10;;;;;;7381825;19;20420;-45
2022/07/18 10:02:45;;;;;;;4.00;2.67;;;34.30;27.90;;;;;;7383182;19;20401;-46
2022/07/18 10:05:14;;;;;;;4.13;3.40;;;34.50;27.70;;;;;;7384164;19;20476;-46
2022/07/18 10:07:45;;;;;;;2.30;2.10;;;34.70;27.50;;;;;;7386273;19;20384;-49
2022/07/18 10:10:20;;;;;;;16.77;9.00;;;34.90;27.20;;;;;;7377110;19;20927;-46
2022/07/18 10:12:50;;;;;;;10.70;5.27;;;35.00;28.40;;;;;;7366152;19;20376;-46
2022/07/18 10:15:25;;;;;;;65.60;11.67;;;34.90;27.60;;;;;;7380075;19;20392;-47
2022/07/18 10:17:54;;;;;;;3.53;2.40;;;34.90;27.10;;;;;;7381497;19;20391;-46
2022/07/18 10:20:33;;;;;;;2.03;1.67;;;35.60;26.70;;;;;;7384870;19;20420;-46
2022/07/18 10:23:16;;;;;;;2.27;1.93;;;36.10;25.90;;;;;;7382983;19;20380;-46
2022/07/18 10:26:16;;;;;;;3.80;2.87;;;36.70;25.10;;;;;;7382925;19;21031;-46
2022/07/18 10:29:27;;;;;;;2.70;1.90;;;36.90;25.70;;;;;;7381479;19;20757;-46
2022/07/18 10:32:05;;;;;;;17.70;7.53;;;37.00;24.80;;;;;;7375435;19;20491;-46
2022/07/18 10:34:39;;;;;;;2.33;2.10;;;37.20;24.90;;;;;;7382202;19;20476;-46
2022/07/18 10:37:13;;;;;;;8.50;2.00;;;36.60;23.90;;;;;;7384327;19;20386;-46
2022/07/18 10:39:46;;;;;;;2.23;2.03;;;36.30;25.00;;;;;;7381276;19;20387;-46
2022/07/18 10:42:27;;;;;;;17.67;7.80;;;36.50;25.20;;;;;;7382926;19;20387;-46
2022/07/18 10:44:56;;;;;;;2.33;1.77;;;36.60;26.40;;;;;;7385279;19;20451;-46
2022/07/18 10:47:31;;;;;;;2.60;2.17;;;36.60;24.80;;;;;;7382666;19;20372;-46
2022/07/18 10:50:19;;;;;;;2.10;1.47;;;36.70;26.10;;;;;;7381395;19;20384;-46
2022/07/18 10:53:04;;;;;;;3.87;1.80;;;36.70;24.50;;;;;;7384336;19;20463;-46
2022/07/18 10:55:35;;;;;;;1.90;1.70;;;36.60;23.90;;;;;;7386167;19;20503;-46
2022/07/18 10:58:22;;;;;;;6.37;1.83;;;36.10;24.40;;;;;;7383782;19;20398;-46
2022/07/18 11:00:54;;;;;;;2.03;1.83;;;36.00;25.00;;;;;;7380753;19;20432;-46
2022/07/18 11:03:30;;;;;;;1.77;1.63;;;35.80;24.30;;;;;;7378940;19;20372;-46
2022/07/18 11:06:00;;;;;;;1.37;1.27;;;36.00;24.80;;;;;;7383396;19;20396;-46
2022/07/18 11:08:33;;;;;;;1.87;1.53;;;35.70;24.60;;;;;;7382824;19;20375;-46
2022/07/18 11:11:07;;;;;;;2.33;2.13;;;35.70;24.90;;;;;;7382358;19;20372;-46
2022/07/18 11:13:43;;;;;;;1.63;1.53;;;36.10;24.90;;;;;;7385152;19;20391;-47
2022/07/18 11:16:14;;;;;;;1.70;1.60;;;36.30;23.80;;;;;;7385187;19;20463;-46
2022/07/18 11:19:22;;;;;;;2.50;1.43;;;36.40;23.70;;;;;;7390092;19;20395;-46
2022/07/18 11:22:02;;;;;;;2.47;2.27;;;36.40;23.60;;;;;;7390542;19;20376;-46
2022/07/18 11:24:35;;;;;;;2.50;1.70;;;36.60;24.10;;;;;;7390546;19;20383;-46
2022/07/18 11:27:07;;;;;;;3.47;3.17;;;36.70;23.50;;;;;;7387616;19;20403;-46
2022/07/18 11:29:45;;;;;;;1.67;1.50;;;36.90;24.00;;;;;;7391882;19;20376;-46
2022/07/18 11:32:15;;;;;;;1.93;1.73;;;36.90;23.30;;;;;;7388844;19;20401;-46
2022/07/18 11:34:52;;;;;;;5.83;3.30;;;36.80;22.90;;;;;;7389947;19;20745;-46
2022/07/18 11:37:22;;;;;;;16.00;7.23;;;36.40;23.70;;;;;;7390920;19;20733;-46
2022/07/18 11:39:51;;;;;;;2.10;1.90;;;36.70;24.10;;;;;;7387032;19;20380;-46
2022/07/18 11:42:37;;;;;;;14.40;5.80;;;36.60;23.20;;;;;;7389808;19;20393;-46
2022/07/18 11:45:12;;;;;;;2.00;1.53;;;36.30;24.10;;;;;;7390198;19;20372;-46
2022/07/18 11:47:51;;;;;;;4.97;2.77;;;36.30;23.70;;;;;;7389767;19;20372;-46
2022/07/18 11:50:28;;;;;;;3.80;1.57;;;36.30;24.00;;;;;;7388437;19;21003;-46
2022/07/18 11:53:01;;;;;;;5.40;3.50;;;36.60;23.90;;;;;;7390440;19;20380;-45
2022/07/18 11:55:40;;;;;;;2.63;1.60;;;36.60;23.60;;;;;;7391466;19;20409;-46
2022/07/18 11:58:14;;;;;;;1.80;1.70;;;37.00;22.80;;;;;;7379968;19;20371;-46
2022/07/18 12:00:46;;;;;;;1.90;1.00;;;37.20;23.10;;;;;;7381922;19;20995;-46
2022/07/18 12:03:23;;;;;;;1.67;1.27;;;37.10;22.40;;;;;;7388042;19;20379;-46
2022/07/18 12:05:56;;;;;;;1.90;1.70;;;37.00;22.80;;;;;;7388705;19;20371;-46
2022/07/18 12:08:34;;;;;;;1.67;1.40;;;37.20;23.60;;;;;;7388474;19;20392;-46
2022/07/18 12:11:09;;;;;;;1.33;1.23;;;37.70;23.20;;;;;;7387266;19;21126;-46
2022/07/18 12:13:54;;;;;;;1.40;1.27;;;37.50;22.00;;;;;;7390591;19;20897;-46
2022/07/18 12:16:34;;;;;;;2.30;1.47;;;36.80;22.60;;;;;;7386106;19;20392;-46
2022/07/18 12:19:13;;;;;;;1.80;1.67;;;36.50;23.00;;;;;;7388118;19;20420;-46
2022/07/18 12:21:47;;;;;;;2.00;1.30;;;36.80;23.40;;;;;;7391291;19;20909;-49
2022/07/18 12:24:21;;;;;;;2.20;1.30;;;36.80;22.20;;;;;;7386163;19;20429;-49
2022/07/18 12:26:51;;;;;;;1.50;1.30;;;36.70;23.00;;;;;;7386810;19;20726;-52
2022/07/18 12:29:20;;;;;;;2.33;1.80;;;36.60;23.20;;;;;;7388332;19;20376;-50
2022/07/18 12:31:54;;;;;;;1.93;1.80;;;37.00;23.80;;;;;;7387741;19;20391;-50
2022/07/18 12:34:24;;;;;;;4.00;1.60;;;37.40;23.00;;;;;;7390100;19;20394;-50
2022/07/18 12:36:57;;;;;;;2.83;1.70;;;37.40;22.70;;;;;;7387436;19;20756;-50
2022/07/18 12:39:31;;;;;;;4.80;2.20;;;37.00;23.30;;;;;;7388702;19;21205;-50
2022/07/18 12:42:03;;;;;;;11.87;5.80;;;36.90;23.60;;;;;;7386546;19;20977;-51
2022/07/18 12:44:33;;;;;;;8.33;2.60;;;37.20;23.60;;;;;;7385062;19;20409;-50
2022/07/18 12:47:05;;;;;;;12.33;6.40;;;37.20;23.30;;;;;;7382516;19;20444;-50
2022/07/18 12:49:34;;;;;;;12.90;7.20;;;37.50;23.80;;;;;;7388062;19;20905;-46
2022/07/18 12:52:04;;;;;;;1.50;1.40;;;37.70;23.80;;;;;;7383861;19;20377;-46
2022/07/18 12:54:33;;;;;;;2.90;2.20;;;37.40;22.90;;;;;;7387586;19;20380;-46
2022/07/18 12:57:02;;;;;;;1.83;1.73;;;36.80;23.50;;;;;;7386867;19;20376;-46
2022/07/18 12:59:32;;;;;;;2.67;1.57;;;36.50;23.70;;;;;;7383932;19;20989;-46
2022/07/18 13:02:01;;;;;;;1.80;1.47;;;36.20;23.70;;;;;;7385570;19;20923;-46
2022/07/18 13:04:37;;;;;;;2.60;1.73;;;35.90;24.10;;;;;;7388196;19;20562;-46
2022/07/18 13:07:11;;;;;;;1.97;1.63;;;35.30;24.50;;;;;;7387229;19;20390;-46
2022/07/18 13:09:40;;;;;;;3.60;1.50;;;35.10;24.80;;;;;;7389907;19;20782;-45
2022/07/18 13:12:12;;;;;;;2.07;1.47;;;34.80;24.80;;;;;;7388865;19;20402;-46